createdAt,value
2019-03-10T00:01:35.947Z,3.23
2019-03-10T00:04:04.983Z,3.63
2019-03-10T00:06:34.952Z,3.23
2019-03-10T00:09:04.938Z,3.33
2019-03-10T00:11:33.942Z,4.73
2019-03-10T00:14:02.907Z,2.93
2019-03-10T00:16:31.962Z,3.03
2019-03-10T00:19:01.022Z,3.30
2019-03-10T00:21:30.031Z,3.27
2019-03-10T00:23:59.037Z,2.80
2019-03-10T00:26:28.083Z,3.20
2019-03-10T00:28:57.198Z,3.13
2019-03-10T00:31:26.278Z,2.63
2019-03-10T00:33:55.304Z,2.80
2019-03-10T00:36:24.333Z,3.00
2019-03-10T00:39:37.958Z,3.20
2019-03-10T00:42:52.406Z,2.87
2019-03-10T00:46:20.542Z,2.87
2019-03-10T00:49:42.725Z,2.67
2019-03-10T00:52:18.839Z,3.77
2019-03-10T00:54:47.980Z,3.57
2019-03-10T00:57:17.065Z,3.33
2019-03-10T00:59:46.143Z,4.43
2019-03-10T01:02:15.211Z,2.83
2019-03-10T01:04:44.247Z,2.87
2019-03-10T01:07:32.574Z,4.07
2019-03-10T01:10:01.649Z,2.40
2019-03-10T01:12:30.710Z,3.03
2019-03-10T01:14:59.818Z,3.37
2019-03-10T01:17:28.869Z,3.07
2019-03-10T01:19:57.885Z,3.17
2019-03-10T01:22:26.993Z,2.53
2019-03-10T01:24:56.086Z,2.53
2019-03-10T01:27:25.090Z,2.83
2019-03-10T01:29:54.128Z,3.67
2019-03-10T01:33:02.772Z,3.03
2019-03-10T01:35:38.013Z,2.10
2019-03-10T01:38:07.037Z,2.90
2019-03-10T01:40:36.050Z,2.47
2019-03-10T01:43:05.190Z,2.50
2019-03-10T01:45:34.178Z,2.73
2019-03-10T01:48:03.172Z,3.27
2019-03-10T01:50:32.307Z,2.67
2019-03-10T01:53:01.473Z,2.07
2019-03-10T01:55:30.474Z,2.50
2019-03-10T01:57:59.479Z,2.63
2019-03-10T02:00:28.567Z,2.77
2019-03-10T02:02:57.669Z,3.23
2019-03-10T02:05:26.750Z,2.33
2019-03-10T02:07:55.814Z,2.23
2019-03-10T02:10:24.736Z,2.17
2019-03-10T02:12:53.739Z,2.60
2019-03-10T02:15:22.759Z,2.23
2019-03-10T02:17:51.833Z,2.40
2019-03-10T02:20:20.978Z,2.17
2019-03-10T02:22:50.138Z,2.33
2019-03-10T02:25:19.208Z,2.00
2019-03-10T02:27:48.279Z,2.57
2019-03-10T02:30:18.561Z,2.23
2019-03-10T02:32:47.648Z,3.13
2019-03-10T02:35:16.796Z,2.20
2019-03-10T02:37:45.763Z,2.37
2019-03-10T02:40:14.779Z,2.70
2019-03-10T02:42:43.741Z,2.97
2019-03-10T02:45:12.808Z,2.10
2019-03-10T02:47:41.910Z,2.43
2019-03-10T02:50:10.965Z,2.17
2019-03-10T02:52:40.043Z,2.37
2019-03-10T02:55:09.159Z,2.63
2019-03-10T02:57:38.223Z,2.70
2019-03-10T03:00:08.682Z,2.70
2019-03-10T03:02:37.781Z,2.40
2019-03-10T03:05:07.381Z,1.97
2019-03-10T03:07:36.519Z,2.33
2019-03-10T03:10:05.799Z,2.37
2019-03-10T03:12:35.565Z,3.13
2019-03-10T03:15:04.928Z,2.40
2019-03-10T03:17:33.994Z,2.40
2019-03-10T03:20:15.696Z,1.97
2019-03-10T03:23:20.849Z,1.60
2019-03-10T03:25:59.807Z,2.33
2019-03-10T03:28:48.988Z,2.03
2019-03-10T03:31:17.989Z,2.40
2019-03-10T03:33:47.404Z,1.90
2019-03-10T03:36:23.652Z,2.17
2019-03-10T03:38:56.789Z,2.27
2019-03-10T03:41:27.154Z,1.97
2019-03-10T03:43:56.128Z,1.97
2019-03-10T03:46:25.123Z,2.20
2019-03-10T03:48:54.175Z,3.10
2019-03-10T03:51:23.450Z,2.27
2019-03-10T03:53:52.509Z,2.13
2019-03-10T03:56:21.553Z,2.40
2019-03-10T03:58:50.575Z,2.03
2019-03-10T04:01:32.088Z,2.30
2019-03-10T04:04:01.090Z,1.93
2019-03-10T04:06:30.132Z,2.93
2019-03-10T04:08:59.205Z,2.00
2019-03-10T04:11:28.347Z,2.00
2019-03-10T04:13:57.484Z,1.70
2019-03-10T04:16:26.573Z,2.80
2019-03-10T04:18:55.621Z,1.90
2019-03-10T04:21:24.623Z,1.97
2019-03-10T04:23:53.778Z,2.20
2019-03-10T04:26:22.946Z,1.93
2019-03-10T04:28:51.958Z,2.43
2019-03-10T04:31:20.974Z,2.27
2019-03-10T04:33:50.055Z,2.53
2019-03-10T04:36:19.134Z,3.10
2019-03-10T04:38:48.174Z,1.80
2019-03-10T04:41:17.235Z,2.60
2019-03-10T04:43:46.306Z,3.17
2019-03-10T04:46:15.364Z,2.30
2019-03-10T04:48:44.437Z,3.00
2019-03-10T04:51:13.434Z,2.50
2019-03-10T04:53:42.417Z,2.60
2019-03-10T04:56:21.781Z,2.70
2019-03-10T04:58:52.230Z,2.97
2019-03-10T05:01:22.073Z,2.97
2019-03-10T05:03:51.235Z,3.90
2019-03-10T05:06:20.294Z,3.13
2019-03-10T05:08:49.382Z,3.77
2019-03-10T05:11:18.410Z,2.70
2019-03-10T05:13:47.421Z,3.50
2019-03-10T05:16:16.439Z,3.43
2019-03-10T05:18:45.607Z,2.87
2019-03-10T05:21:14.686Z,3.57
2019-03-10T05:23:44.668Z,3.23
2019-03-10T05:26:14.990Z,3.07
2019-03-10T05:28:45.507Z,3.53
2019-03-10T05:31:14.589Z,3.13
2019-03-10T05:33:43.678Z,2.63
2019-03-10T05:36:15.608Z,3.53
2019-03-10T05:38:44.621Z,3.10
2019-03-10T05:41:13.622Z,3.30
2019-03-10T05:43:42.663Z,3.07
2019-03-10T05:46:11.789Z,3.63
2019-03-10T05:48:40.890Z,2.73
2019-03-10T05:51:09.958Z,2.73
2019-03-10T05:53:38.983Z,2.70
2019-03-10T05:56:08.035Z,3.30
2019-03-10T05:58:56.280Z,2.87
2019-03-10T06:01:25.407Z,2.77
2019-03-10T06:03:54.463Z,3.57
2019-03-10T06:06:23.511Z,2.60
2019-03-10T06:08:54.105Z,2.50
2019-03-10T06:11:23.122Z,2.23
2019-03-10T06:13:52.155Z,3.87
2019-03-10T06:16:21.217Z,2.93
2019-03-10T06:18:50.250Z,2.80
2019-03-10T06:21:19.274Z,3.20
2019-03-10T06:23:48.310Z,2.57
2019-03-10T06:26:17.335Z,2.40
2019-03-10T06:28:46.406Z,2.57
2019-03-10T06:31:15.612Z,3.13
2019-03-10T06:33:44.637Z,2.50
2019-03-10T06:36:13.710Z,2.87
2019-03-10T06:38:42.777Z,2.20
2019-03-10T06:41:11.875Z,2.40
2019-03-10T06:43:40.931Z,3.57
2019-03-10T06:46:10.059Z,2.70
2019-03-10T06:48:39.175Z,2.70
2019-03-10T06:51:08.210Z,3.03
2019-03-10T06:53:37.289Z,2.33
2019-03-10T06:56:06.409Z,2.80
2019-03-10T06:58:35.488Z,2.60
2019-03-10T07:01:04.525Z,2.83
2019-03-10T07:03:33.606Z,2.67
2019-03-10T07:06:02.668Z,2.90
2019-03-10T07:08:32.655Z,2.57
2019-03-10T07:11:02.105Z,2.97
2019-03-10T07:13:31.133Z,2.23
2019-03-10T07:16:00.127Z,1.90
2019-03-10T07:18:29.184Z,3.03
2019-03-10T07:20:58.283Z,2.23
2019-03-10T07:23:27.410Z,2.40
2019-03-10T07:26:05.931Z,2.73
2019-03-10T07:28:55.273Z,2.63
2019-03-10T07:31:28.311Z,3.30
2019-03-10T07:34:16.398Z,2.93
2019-03-10T07:37:03.018Z,2.50
2019-03-10T07:39:45.481Z,2.50
2019-03-10T07:42:29.885Z,2.63
2019-03-10T07:45:07.927Z,2.63
2019-03-10T07:47:48.410Z,3.00
2019-03-10T07:50:33.288Z,2.70
2019-03-10T07:53:25.722Z,2.50
2019-03-10T07:56:12.443Z,3.23
2019-03-10T07:58:56.242Z,3.30
2019-03-10T08:02:02.593Z,3.07
2019-03-10T08:05:05.648Z,3.23
2019-03-10T08:07:51.562Z,3.20
2019-03-10T08:10:51.777Z,3.23
2019-03-10T08:13:51.706Z,3.43
2019-03-10T08:16:46.385Z,3.67
2019-03-10T08:19:27.001Z,3.73
2019-03-10T08:22:17.935Z,3.20
2019-03-10T08:25:03.470Z,2.93
2019-03-10T08:27:40.336Z,3.10
2019-03-10T08:30:24.737Z,3.10
2019-03-10T08:33:08.507Z,2.67
2019-03-10T08:35:50.699Z,3.07
2019-03-10T08:38:28.543Z,2.67
2019-03-10T08:41:25.657Z,3.20
2019-03-10T08:44:13.359Z,3.10
2019-03-10T08:46:57.795Z,2.77
2019-03-10T08:49:57.843Z,3.33
2019-03-10T08:52:42.675Z,2.60
2019-03-10T08:55:29.589Z,2.80
2019-03-10T08:58:12.939Z,4.37
2019-03-10T09:00:59.753Z,2.80
2019-03-10T09:03:55.024Z,3.03
2019-03-10T09:06:49.192Z,2.77
2019-03-10T09:09:34.828Z,2.27
2019-03-10T09:12:25.696Z,2.43
2019-03-10T09:15:13.780Z,2.07
2019-03-10T09:18:01.898Z,2.10
2019-03-10T09:20:48.754Z,1.80
2019-03-10T09:23:39.924Z,1.93
2019-03-10T09:26:33.959Z,1.43
2019-03-10T09:29:20.642Z,2.20
2019-03-10T09:32:11.510Z,2.00
2019-03-10T09:34:58.774Z,2.33
2019-03-10T09:37:35.739Z,1.60
2019-03-10T09:40:12.464Z,1.87
2019-03-10T09:42:57.173Z,1.40
2019-03-10T09:45:35.620Z,1.47
2019-03-10T09:48:29.678Z,1.60
2019-03-10T09:51:15.110Z,1.50
2019-03-10T09:54:01.927Z,1.63
2019-03-10T09:56:40.526Z,1.53
2019-03-10T09:59:28.642Z,1.40
2019-03-10T10:02:06.332Z,1.60
2019-03-10T10:04:53.299Z,1.50
2019-03-10T10:07:39.934Z,1.47
2019-03-10T10:10:24.665Z,1.50
2019-03-10T10:13:17.761Z,1.30
2019-03-10T10:16:01.947Z,1.20
2019-03-10T10:18:46.559Z,1.17
2019-03-10T10:21:37.170Z,1.17
2019-03-10T10:24:18.771Z,1.80
2019-03-10T10:26:59.139Z,1.30
2019-03-10T10:29:43.231Z,1.13
2019-03-10T10:32:37.354Z,1.40
2019-03-10T10:35:25.572Z,1.00
2019-03-10T10:38:18.590Z,1.30
2019-03-10T10:41:01.530Z,1.30
2019-03-10T10:43:58.836Z,1.07
2019-03-10T10:46:59.030Z,1.07
2019-03-10T10:49:45.797Z,1.10
2019-03-10T10:52:36.880Z,1.40
2019-03-10T10:55:12.884Z,1.00
2019-03-10T10:57:48.142Z,1.20
2019-03-10T11:00:25.775Z,1.17
2019-03-10T11:03:08.255Z,1.17
2019-03-10T11:05:54.108Z,1.17
2019-03-10T11:08:41.514Z,1.13
2019-03-10T11:11:27.911Z,1.10
2019-03-10T11:14:21.843Z,1.30
2019-03-10T11:17:17.293Z,1.40
2019-03-10T11:20:08.287Z,1.40
2019-03-10T11:22:48.158Z,1.80
2019-03-10T11:25:45.051Z,1.73
2019-03-10T11:28:31.630Z,1.97
2019-03-10T11:31:08.806Z,2.17
2019-03-10T11:33:48.813Z,2.03
2019-03-10T11:36:42.563Z,3.30
2019-03-10T11:39:28.958Z,2.80
2019-03-10T11:42:05.670Z,3.83
2019-03-10T11:44:49.057Z,5.30
2019-03-10T11:47:38.417Z,5.67
2019-03-10T11:50:39.184Z,6.00
2019-03-10T11:53:33.863Z,5.87
2019-03-10T11:56:27.782Z,5.73
2019-03-10T11:59:24.747Z,8.57
2019-03-10T12:01:59.551Z,5.27
2019-03-10T12:04:56.474Z,6.23
2019-03-10T12:07:56.652Z,5.20
2019-03-10T12:10:25.746Z,6.60
2019-03-10T12:12:54.748Z,5.97
2019-03-10T12:15:23.914Z,5.97
2019-03-10T12:17:52.957Z,5.33
2019-03-10T12:20:22.017Z,6.03
2019-03-10T12:22:51.102Z,7.23
2019-03-10T12:25:20.189Z,5.33
2019-03-10T12:27:49.163Z,6.13
2019-03-10T12:30:18.221Z,5.10
2019-03-10T12:32:47.401Z,4.47
2019-03-10T12:35:16.456Z,4.07
2019-03-10T12:37:45.536Z,4.73
2019-03-10T12:40:14.637Z,3.13
2019-03-10T12:42:43.665Z,5.03
2019-03-10T12:45:12.769Z,3.30
2019-03-10T12:47:41.881Z,3.33
2019-03-10T12:50:10.998Z,2.93
2019-03-10T12:52:40.059Z,4.10
2019-03-10T12:55:09.138Z,3.00
2019-03-10T12:57:38.444Z,2.90
2019-03-10T13:00:08.247Z,3.53
2019-03-10T13:02:37.422Z,3.13
2019-03-10T13:05:07.876Z,3.13
2019-03-10T13:07:37.057Z,3.13
2019-03-10T13:10:06.145Z,3.50
2019-03-10T13:12:35.282Z,4.10
2019-03-10T13:15:04.378Z,3.43
2019-03-10T13:17:52.601Z,4.90
2019-03-10T13:20:28.319Z,3.57
2019-03-10T13:22:52.343Z,3.57
2019-03-10T13:25:21.362Z,3.20
2019-03-10T13:27:51.591Z,2.80
2019-03-10T13:30:20.665Z,2.20
2019-03-10T13:32:49.750Z,4.03
2019-03-10T13:35:18.814Z,1.80
2019-03-10T13:37:47.806Z,2.43
2019-03-10T13:40:16.906Z,1.10
2019-03-10T13:42:45.946Z,0.73
2019-03-10T13:45:15.018Z,0.63
2019-03-10T13:47:44.074Z,0.60
2019-03-10T13:50:13.114Z,0.70
2019-03-10T13:52:42.206Z,0.50
2019-03-10T13:55:11.248Z,0.50
2019-03-10T13:57:45.409Z,0.43
2019-03-10T14:00:15.192Z,0.53
2019-03-10T14:02:44.261Z,0.50
2019-03-10T14:05:13.350Z,0.43
2019-03-10T14:07:43.857Z,0.50
2019-03-10T14:10:12.959Z,0.50
2019-03-10T14:13:05.186Z,0.50
2019-03-10T14:15:34.333Z,0.50
2019-03-10T14:18:03.395Z,0.50
2019-03-10T14:20:32.459Z,0.50
2019-03-10T14:23:01.955Z,0.50
2019-03-10T14:25:31.014Z,0.40
2019-03-10T14:28:00.878Z,0.47
2019-03-10T14:30:29.932Z,0.60
2019-03-10T14:32:58.972Z,0.47
2019-03-10T14:35:48.178Z,0.60
2019-03-10T14:38:17.652Z,0.70
2019-03-10T14:40:48.153Z,0.87
2019-03-10T14:43:18.327Z,0.80
2019-03-10T14:45:47.380Z,0.60
2019-03-10T14:48:16.406Z,0.93
2019-03-10T14:50:46.113Z,0.60
2019-03-10T14:53:15.303Z,0.50
2019-03-10T14:55:44.430Z,0.40
2019-03-10T14:58:13.505Z,0.63
2019-03-10T15:00:42.658Z,0.70
2019-03-10T15:03:30.830Z,0.90
2019-03-10T15:05:59.846Z,0.63
2019-03-10T15:08:28.933Z,0.60
2019-03-10T15:10:58.032Z,0.40
2019-03-10T15:13:27.654Z,1.33
2019-03-10T15:15:56.811Z,0.50
2019-03-10T15:18:25.850Z,0.60
2019-03-10T15:20:55.001Z,0.40
2019-03-10T15:23:35.651Z,0.50
2019-03-10T15:26:05.204Z,0.40
2019-03-10T15:28:40.429Z,0.50
2019-03-10T15:31:09.570Z,0.57
2019-03-10T15:33:38.596Z,1.00
2019-03-10T15:36:07.631Z,0.70
2019-03-10T15:38:36.827Z,0.77
2019-03-10T15:41:05.945Z,0.40
2019-03-10T15:43:34.981Z,1.10
2019-03-10T15:46:04.081Z,0.70
2019-03-10T15:48:33.104Z,0.47
2019-03-10T15:51:02.109Z,0.50
2019-03-10T15:53:31.857Z,0.60
2019-03-10T15:56:00.832Z,0.57
2019-03-10T15:58:29.862Z,0.50
2019-03-10T16:00:58.982Z,0.80
2019-03-10T16:03:28.079Z,0.53
2019-03-10T16:05:57.539Z,0.53
2019-03-10T16:08:26.610Z,0.70
2019-03-10T16:10:55.734Z,0.43
2019-03-10T16:13:24.824Z,0.57
2019-03-10T16:15:53.923Z,0.63
2019-03-10T16:18:23.071Z,0.50
2019-03-10T16:20:52.333Z,0.63
2019-03-10T16:23:21.760Z,0.40
2019-03-10T16:25:51.150Z,0.67
2019-03-10T16:28:20.300Z,0.70
2019-03-10T16:30:49.541Z,0.53
2019-03-10T16:33:18.995Z,0.50
2019-03-10T16:35:48.304Z,0.43
2019-03-10T16:38:17.440Z,0.40
2019-03-10T16:40:46.609Z,0.63
2019-03-10T16:43:15.893Z,0.50
2019-03-10T16:45:45.609Z,0.60
2019-03-10T16:48:14.837Z,0.50
2019-03-10T16:50:43.861Z,0.40
2019-03-10T16:53:12.926Z,0.37
2019-03-10T16:55:42.060Z,0.50
2019-03-10T16:58:11.176Z,0.57
2019-03-10T17:00:40.323Z,0.40
2019-03-10T17:03:09.600Z,0.40
2019-03-10T17:05:38.721Z,0.67
2019-03-10T17:08:07.753Z,0.50
2019-03-10T17:10:36.847Z,0.60
2019-03-10T17:13:05.929Z,0.50
2019-03-10T17:15:35.119Z,0.50
2019-03-10T17:18:04.238Z,0.70
2019-03-10T17:20:33.264Z,0.90
2019-03-10T17:23:02.237Z,0.67
2019-03-10T17:25:31.335Z,1.00
2019-03-10T17:28:19.573Z,0.80
2019-03-10T17:30:48.597Z,1.43
2019-03-10T17:33:17.625Z,0.90
2019-03-10T17:35:46.697Z,0.90
2019-03-10T17:38:15.683Z,1.30
2019-03-10T17:40:44.809Z,1.13
2019-03-10T17:43:13.865Z,1.00
2019-03-10T17:45:42.989Z,1.30
2019-03-10T17:48:13.131Z,0.97
2019-03-10T17:50:42.349Z,2.50
2019-03-10T17:53:11.436Z,1.20
2019-03-10T17:55:40.474Z,1.10
2019-03-10T17:58:09.544Z,2.07
2019-03-10T18:00:39.186Z,1.07
2019-03-10T18:03:08.249Z,1.00
2019-03-10T18:05:37.334Z,1.23
2019-03-10T18:08:06.406Z,1.70
2019-03-10T18:10:35.427Z,1.27
2019-03-10T18:13:04.432Z,1.93
2019-03-10T18:15:45.863Z,1.60
2019-03-10T18:18:14.888Z,2.57
2019-03-10T18:20:43.905Z,1.83
2019-03-10T18:23:13.064Z,1.93
2019-03-10T18:25:42.135Z,1.43
2019-03-10T18:28:11.302Z,1.60
2019-03-10T18:30:40.320Z,1.47
2019-03-10T18:33:09.370Z,1.47
2019-03-10T18:35:38.498Z,3.00
2019-03-10T18:38:07.509Z,1.60
2019-03-10T18:40:36.669Z,1.00
2019-03-10T18:43:05.646Z,0.60
2019-03-10T18:45:34.746Z,0.90
2019-03-10T18:48:03.767Z,0.60
2019-03-10T18:50:32.900Z,0.60
2019-03-10T18:53:01.964Z,0.90
2019-03-10T18:55:30.982Z,0.93
2019-03-10T18:58:00.100Z,0.87
2019-03-10T19:00:29.191Z,0.90
2019-03-10T19:02:58.278Z,0.80
2019-03-10T19:05:46.637Z,1.73
2019-03-10T19:08:15.681Z,1.47
2019-03-10T19:10:44.765Z,1.57
2019-03-10T19:13:13.952Z,1.40
2019-03-10T19:15:43.089Z,2.33
2019-03-10T19:18:12.131Z,1.63
2019-03-10T19:20:41.305Z,2.00
2019-03-10T19:23:10.373Z,2.37
2019-03-10T19:25:58.737Z,1.90
2019-03-10T19:28:27.872Z,2.13
2019-03-10T19:30:56.950Z,1.47
2019-03-10T19:33:25.935Z,2.10
2019-03-10T19:35:54.958Z,2.47
2019-03-10T19:38:24.027Z,1.70
2019-03-10T19:40:53.088Z,2.10
2019-03-10T19:43:22.242Z,2.47
2019-03-10T19:45:51.388Z,1.87
2019-03-10T19:48:20.411Z,2.30
2019-03-10T19:50:49.458Z,2.30
2019-03-10T19:53:18.503Z,1.90
2019-03-10T19:55:47.640Z,1.60
2019-03-10T19:58:16.682Z,1.57
2019-03-10T20:00:45.796Z,2.40
2019-03-10T20:03:14.944Z,2.50
2019-03-10T20:05:43.997Z,2.07
2019-03-10T20:08:13.001Z,1.53
2019-03-10T20:10:42.036Z,1.90
2019-03-10T20:13:11.086Z,1.70
2019-03-10T20:15:40.320Z,1.60
2019-03-10T20:18:09.367Z,1.77
2019-03-10T20:20:38.525Z,1.90
2019-03-10T20:23:07.600Z,1.70
2019-03-10T20:25:36.706Z,2.03
2019-03-10T20:28:05.862Z,1.87
2019-03-10T20:30:34.902Z,1.70
2019-03-10T20:33:04.035Z,1.97
2019-03-10T20:35:33.188Z,1.70
2019-03-10T20:38:02.357Z,1.70
2019-03-10T20:40:31.401Z,1.83
2019-03-10T20:43:00.379Z,1.33
2019-03-10T20:45:29.494Z,1.90
2019-03-10T20:47:58.678Z,1.30
2019-03-10T20:50:46.890Z,1.77
2019-03-10T20:53:15.955Z,1.67
2019-03-10T20:55:45.068Z,1.70
2019-03-10T20:58:14.174Z,1.63
2019-03-10T21:00:44.544Z,1.80
2019-03-10T21:03:13.645Z,2.00
2019-03-10T21:05:42.718Z,2.60
2019-03-10T21:08:11.741Z,2.20
2019-03-10T21:10:40.747Z,1.80
2019-03-10T21:13:09.719Z,1.53
2019-03-10T21:15:38.766Z,1.90
2019-03-10T21:18:07.935Z,1.60
2019-03-10T21:20:37.056Z,4.10
2019-03-10T21:23:06.142Z,1.60
2019-03-10T21:25:35.233Z,2.67
2019-03-10T21:28:04.262Z,2.53
2019-03-10T21:30:33.312Z,1.53
2019-03-10T21:33:02.349Z,1.70
2019-03-10T21:35:33.366Z,1.50
2019-03-10T21:38:02.231Z,1.60
2019-03-10T21:40:31.377Z,2.20
2019-03-10T21:43:00.474Z,1.83
2019-03-10T21:45:29.529Z,1.30
2019-03-10T21:47:58.590Z,1.67
2019-03-10T21:50:27.657Z,1.83
2019-03-10T21:52:56.730Z,1.90
2019-03-10T21:55:25.823Z,1.80
2019-03-10T21:57:54.788Z,3.20
2019-03-10T22:00:23.883Z,2.70
2019-03-10T22:02:52.934Z,2.07
2019-03-10T22:05:22.011Z,2.67
2019-03-10T22:07:51.084Z,2.00
2019-03-10T22:10:26.849Z,1.90
2019-03-10T22:12:50.814Z,2.30
2019-03-10T22:15:19.856Z,2.10
2019-03-10T22:17:48.872Z,1.73
2019-03-10T22:20:17.903Z,1.70
2019-03-10T22:22:49.840Z,1.90
2019-03-10T22:25:17.938Z,1.60
2019-03-10T22:27:47.121Z,1.63
2019-03-10T22:30:16.573Z,2.00
2019-03-10T22:32:45.663Z,1.70
2019-03-10T22:35:14.730Z,1.67
2019-03-10T22:37:43.867Z,1.93
2019-03-10T22:40:12.953Z,1.77
2019-03-10T22:42:41.974Z,2.07
2019-03-10T22:45:11.621Z,2.17
2019-03-10T22:47:40.664Z,2.00
2019-03-10T22:50:10.526Z,1.90
2019-03-10T22:52:58.770Z,2.07
2019-03-10T22:55:27.825Z,2.07
2019-03-10T22:57:56.879Z,1.80
2019-03-10T23:00:30.144Z,2.03
2019-03-10T23:03:00.319Z,1.70
2019-03-10T23:05:29.343Z,1.63
2019-03-10T23:07:58.357Z,2.13
2019-03-10T23:10:27.370Z,1.80
2019-03-10T23:12:56.390Z,1.87
2019-03-10T23:15:25.513Z,1.60
2019-03-10T23:17:54.519Z,1.40
2019-03-10T23:20:23.561Z,2.53
2019-03-10T23:22:52.704Z,1.53
2019-03-10T23:25:21.874Z,1.93
2019-03-10T23:27:50.993Z,1.53
2019-03-10T23:30:20.073Z,1.57
2019-03-10T23:32:49.096Z,1.20
2019-03-10T23:35:18.111Z,1.33
2019-03-10T23:37:47.174Z,1.20
2019-03-10T23:40:16.263Z,1.83
2019-03-10T23:42:45.437Z,1.40
2019-03-10T23:45:14.512Z,1.67
2019-03-10T23:47:43.593Z,1.60
2019-03-10T23:50:12.837Z,1.90
2019-03-10T23:52:41.882Z,1.40
2019-03-10T23:55:11.067Z,1.50
2019-03-10T23:57:40.166Z,1.57
